createdAt,value
2018-03-31T11:09:00.548Z,10.56
2018-03-31T11:11:28.037Z,10.70
2018-03-31T11:13:54.635Z,10.53
2018-03-31T11:16:21.565Z,10.64
2018-03-31T11:18:48.809Z,10.77
2018-03-31T11:21:15.337Z,10.55
2018-03-31T11:23:46.363Z,10.66
2018-03-31T11:26:12.919Z,10.65
2018-03-31T11:28:39.550Z,10.66
2018-03-31T11:31:06.021Z,10.77
2018-03-31T11:33:33.090Z,10.93
2018-03-31T11:36:00.431Z,10.96
2018-03-31T11:38:27.674Z,10.88
2018-03-31T11:40:55.204Z,10.95
2018-03-31T11:43:21.630Z,10.99
2018-03-31T11:45:48.914Z,10.97
2018-03-31T11:48:15.354Z,10.86
2018-03-31T11:50:42.567Z,10.99
2018-03-31T11:53:09.839Z,11.26
2018-03-31T11:55:38.537Z,11.16
2018-03-31T11:58:05.007Z,10.94
2018-03-31T12:00:31.462Z,11.31
2018-03-31T12:02:57.961Z,11.33
2018-03-31T12:05:24.422Z,11.40
2018-03-31T12:07:50.932Z,11.59
2018-03-31T12:10:17.425Z,11.49
2018-03-31T12:12:44.341Z,11.58
2018-03-31T12:15:11.898Z,11.68
2018-03-31T12:17:38.413Z,11.68
2018-03-31T12:20:05.736Z,11.62
2018-03-31T12:22:40.145Z,12.29
2018-03-31T12:25:08.152Z,12.07
2018-03-31T12:27:34.687Z,12.03
2018-03-31T12:30:03.345Z,11.89
2018-03-31T12:32:33.196Z,12.09
2018-03-31T12:35:00.635Z,11.86
2018-03-31T12:37:27.045Z,12.21
2018-03-31T12:39:53.451Z,12.71
2018-03-31T12:42:20.001Z,12.28
2018-03-31T12:44:50.152Z,12.23
2018-03-31T12:47:17.339Z,12.04
2018-03-31T12:49:48.786Z,11.99
2018-03-31T12:55:07.014Z,12.20
2018-03-31T12:57:34.156Z,12.10
